DQ4 weather

CLOSED Catalina Harbour Water Aerodrome
Catalina, Newfoundland and Labrador, Canada

Public forecast

Using degrees Celsius for public forecast. Weather courtesy of forecast.io.

Closest aviation weather report (METAR) to Catalina Harbour Water Aerodrome

Closest report is St. John's International Airport, 54.9 nm (101.7 km) SSE. Retrieved 2020/04/09 01:00 UTC (41 minutes ago):

CYYT 090100Z 22012KT 15SM FEW040 FEW150 FEW200 M03/M07 A2965 RMK SC1AC1CI1 SC TR CI TR SLP051

Closest aviation forecast (TAF) to Catalina Harbour Water Aerodrome

Closest forecast is St. John's International Airport, 54.9 nm (101.7 km) SSE. Retrieved 2020-04-09 00:42 UTC (59 minutes ago):

TAF CYYT 082338Z 0900/0924 22010G20KT P6SM FEW040 BKN140 BKN200 FM090800 20012G22KT P6SM BKN030 TEMPO 0908/0916 BKN020 FM091600 18008KT 2SM -SHSN OVC015 PROB30 0918/0920 3/4SM -SHSN VV008 FM092200 24010KT P6SM SCT030 RMK NXT FCST BY 090600Z